sensor_id;sensor_type;location;lat;lon;timestamp;P1;durP1;ratioP1;P2;durP2;ratioP2
9906;SDS011;4992;51.628;6.664;2023-07-29T00:02:10;2.28;;;1.70;;
9906;SDS011;4992;51.628;6.664;2023-07-29T00:04:36;2.70;;;1.88;;
9906;SDS011;4992;51.628;6.664;2023-07-29T00:07:02;4.32;;;2.20;;
9906;SDS011;4992;51.628;6.664;2023-07-29T00:09:28;2.30;;;1.92;;
9906;SDS011;4992;51.628;6.664;2023-07-29T00:11:54;5.03;;;2.15;;
9906;SDS011;4992;51.628;6.664;2023-07-29T00:14:20;4.13;;;1.60;;
9906;SDS011;4992;51.628;6.664;2023-07-29T00:16:46;2.70;;;1.90;;
9906;SDS011;4992;51.628;6.664;2023-07-29T00:19:12;2.80;;;1.70;;
9906;SDS011;4992;51.628;6.664;2023-07-29T00:21:38;3.28;;;2.00;;
9906;SDS011;4992;51.628;6.664;2023-07-29T00:24:04;2.67;;;1.80;;
9906;SDS011;4992;51.628;6.664;2023-07-29T00:26:30;4.55;;;2.00;;
9906;SDS011;4992;51.628;6.664;2023-07-29T00:28:57;3.13;;;2.10;;
9906;SDS011;4992;51.628;6.664;2023-07-29T00:31:23;2.63;;;2.00;;
9906;SDS011;4992;51.628;6.664;2023-07-29T00:33:49;3.05;;;2.55;;
9906;SDS011;4992;51.628;6.664;2023-07-29T00:36:15;2.75;;;2.20;;
9906;SDS011;4992;51.628;6.664;2023-07-29T00:38:41;2.65;;;2.42;;
9906;SDS011;4992;51.628;6.664;2023-07-29T00:41:07;3.17;;;2.38;;
9906;SDS011;4992;51.628;6.664;2023-07-29T00:43:33;5.03;;;2.42;;
9906;SDS011;4992;51.628;6.664;2023-07-29T00:45:59;2.35;;;2.00;;
9906;SDS011;4992;51.628;6.664;2023-07-29T00:48:25;4.93;;;2.40;;
9906;SDS011;4992;51.628;6.664;2023-07-29T00:50:51;3.72;;;2.10;;
9906;SDS011;4992;51.628;6.664;2023-07-29T00:53:18;2.63;;;2.42;;
9906;SDS011;4992;51.628;6.664;2023-07-29T00:55:43;2.67;;;2.47;;
9906;SDS011;4992;51.628;6.664;2023-07-29T00:58:10;3.25;;;2.35;;
9906;SDS011;4992;51.628;6.664;2023-07-29T01:00:36;2.90;;;2.35;;
9906;SDS011;4992;51.628;6.664;2023-07-29T01:03:02;5.18;;;3.13;;
9906;SDS011;4992;51.628;6.664;2023-07-29T01:05:32;7.93;;;3.03;;
9906;SDS011;4992;51.628;6.664;2023-07-29T01:08:03;5.72;;;3.00;;
9906;SDS011;4992;51.628;6.664;2023-07-29T01:10:37;5.13;;;2.78;;
9906;SDS011;4992;51.628;6.664;2023-07-29T01:15:33;3.65;;;2.67;;
9906;SDS011;4992;51.628;6.664;2023-07-29T01:18:03;2.63;;;2.42;;
9906;SDS011;4992;51.628;6.664;2023-07-29T01:20:29;2.90;;;2.70;;
9906;SDS011;4992;51.628;6.664;2023-07-29T01:22:58;2.70;;;2.50;;
9906;SDS011;4992;51.628;6.664;2023-07-29T01:25:24;3.03;;;2.50;;
9906;SDS011;4992;51.628;6.664;2023-07-29T01:27:50;4.55;;;2.60;;
9906;SDS011;4992;51.628;6.664;2023-07-29T01:30:16;3.08;;;2.88;;
9906;SDS011;4992;51.628;6.664;2023-07-29T01:32:43;2.72;;;2.45;;
9906;SDS011;4992;51.628;6.664;2023-07-29T01:35:24;3.00;;;2.65;;
9906;SDS011;4992;51.628;6.664;2023-07-29T01:37:54;2.75;;;2.53;;
9906;SDS011;4992;51.628;6.664;2023-07-29T01:40:22;3.28;;;2.55;;
9906;SDS011;4992;51.628;6.664;2023-07-29T01:42:49;4.25;;;2.58;;
9906;SDS011;4992;51.628;6.664;2023-07-29T01:45:15;2.78;;;2.28;;
9906;SDS011;4992;51.628;6.664;2023-07-29T01:47:41;3.05;;;2.30;;
9906;SDS011;4992;51.628;6.664;2023-07-29T01:50:07;2.55;;;2.35;;
9906;SDS011;4992;51.628;6.664;2023-07-29T01:52:33;3.25;;;2.88;;
9906;SDS011;4992;51.628;6.664;2023-07-29T01:55:00;2.80;;;2.50;;
9906;SDS011;4992;51.628;6.664;2023-07-29T01:57:26;3.63;;;2.42;;
9906;SDS011;4992;51.628;6.664;2023-07-29T01:59:52;2.40;;;2.20;;
9906;SDS011;4992;51.628;6.664;2023-07-29T02:02:18;3.50;;;2.22;;
9906;SDS011;4992;51.628;6.664;2023-07-29T02:04:44;4.70;;;2.15;;
9906;SDS011;4992;51.628;6.664;2023-07-29T02:07:10;3.60;;;2.95;;
9906;SDS011;4992;51.628;6.664;2023-07-29T02:09:36;2.63;;;1.95;;
9906;SDS011;4992;51.628;6.664;2023-07-29T02:12:02;2.83;;;2.22;;
9906;SDS011;4992;51.628;6.664;2023-07-29T02:14:28;3.42;;;2.40;;
9906;SDS011;4992;51.628;6.664;2023-07-29T02:16:54;7.43;;;2.70;;
9906;SDS011;4992;51.628;6.664;2023-07-29T02:19:20;5.75;;;2.50;;
9906;SDS011;4992;51.628;6.664;2023-07-29T02:21:46;3.35;;;3.05;;
9906;SDS011;4992;51.628;6.664;2023-07-29T02:24:12;2.67;;;2.47;;
9906;SDS011;4992;51.628;6.664;2023-07-29T02:26:38;6.45;;;2.85;;
9906;SDS011;4992;51.628;6.664;2023-07-29T02:29:04;3.28;;;2.67;;
9906;SDS011;4992;51.628;6.664;2023-07-29T02:31:30;3.00;;;2.67;;
9906;SDS011;4992;51.628;6.664;2023-07-29T02:33:56;2.95;;;2.75;;
9906;SDS011;4992;51.628;6.664;2023-07-29T02:36:22;2.78;;;2.58;;
9906;SDS011;4992;51.628;6.664;2023-07-29T02:38:48;4.50;;;3.08;;
9906;SDS011;4992;51.628;6.664;2023-07-29T02:41:14;3.55;;;3.20;;
9906;SDS011;4992;51.628;6.664;2023-07-29T02:43:41;6.45;;;3.30;;
9906;SDS011;4992;51.628;6.664;2023-07-29T02:46:07;4.50;;;3.33;;
9906;SDS011;4992;51.628;6.664;2023-07-29T02:48:33;3.33;;;3.03;;
9906;SDS011;4992;51.628;6.664;2023-07-29T02:50:59;4.32;;;3.92;;
9906;SDS011;4992;51.628;6.664;2023-07-29T02:53:25;4.07;;;3.78;;
9906;SDS011;4992;51.628;6.664;2023-07-29T02:55:51;4.18;;;3.88;;
9906;SDS011;4992;51.628;6.664;2023-07-29T02:58:17;5.68;;;4.00;;
9906;SDS011;4992;51.628;6.664;2023-07-29T03:00:43;4.53;;;4.18;;
9906;SDS011;4992;51.628;6.664;2023-07-29T03:03:09;4.25;;;3.85;;
9906;SDS011;4992;51.628;6.664;2023-07-29T03:05:35;4.53;;;3.83;;
9906;SDS011;4992;51.628;6.664;2023-07-29T03:08:03;4.05;;;3.75;;
9906;SDS011;4992;51.628;6.664;2023-07-29T03:10:29;4.85;;;4.45;;
9906;SDS011;4992;51.628;6.664;2023-07-29T03:12:55;4.80;;;4.28;;
9906;SDS011;4992;51.628;6.664;2023-07-29T03:15:23;5.32;;;4.10;;
9906;SDS011;4992;51.628;6.664;2023-07-29T03:17:50;5.22;;;4.72;;
9906;SDS011;4992;51.628;6.664;2023-07-29T03:20:16;5.50;;;4.70;;
9906;SDS011;4992;51.628;6.664;2023-07-29T03:22:43;5.90;;;4.85;;
9906;SDS011;4992;51.628;6.664;2023-07-29T03:25:08;4.78;;;4.38;;
9906;SDS011;4992;51.628;6.664;2023-07-29T03:27:34;6.50;;;4.60;;
9906;SDS011;4992;51.628;6.664;2023-07-29T03:30:02;5.15;;;4.65;;
9906;SDS011;4992;51.628;6.664;2023-07-29T03:32:28;5.65;;;4.97;;
9906;SDS011;4992;51.628;6.664;2023-07-29T03:34:54;6.70;;;5.35;;
9906;SDS011;4992;51.628;6.664;2023-07-29T03:37:20;6.07;;;4.93;;
9906;SDS011;4992;51.628;6.664;2023-07-29T03:39:46;8.40;;;6.05;;
9906;SDS011;4992;51.628;6.664;2023-07-29T03:42:12;6.07;;;5.57;;
9906;SDS011;4992;51.628;6.664;2023-07-29T03:44:38;6.47;;;5.55;;
9906;SDS011;4992;51.628;6.664;2023-07-29T03:47:05;8.45;;;5.28;;
9906;SDS011;4992;51.628;6.664;2023-07-29T03:49:31;6.10;;;5.60;;
9906;SDS011;4992;51.628;6.664;2023-07-29T03:51:57;6.75;;;5.10;;
9906;SDS011;4992;51.628;6.664;2023-07-29T03:54:23;7.05;;;5.28;;
9906;SDS011;4992;51.628;6.664;2023-07-29T03:56:49;6.00;;;5.32;;
9906;SDS011;4992;51.628;6.664;2023-07-29T03:59:15;6.78;;;5.97;;
9906;SDS011;4992;51.628;6.664;2023-07-29T04:01:41;9.85;;;5.25;;
9906;SDS011;4992;51.628;6.664;2023-07-29T04:04:07;5.50;;;5.00;;
9906;SDS011;4992;51.628;6.664;2023-07-29T04:06:33;5.65;;;5.10;;
9906;SDS011;4992;51.628;6.664;2023-07-29T04:08:59;5.57;;;5.07;;
9906;SDS011;4992;51.628;6.664;2023-07-29T04:11:25;5.85;;;5.13;;
9906;SDS011;4992;51.628;6.664;2023-07-29T04:13:51;7.03;;;5.18;;
9906;SDS011;4992;51.628;6.664;2023-07-29T04:16:17;7.03;;;5.05;;
9906;SDS011;4992;51.628;6.664;2023-07-29T04:18:42;5.57;;;5.07;;
9906;SDS011;4992;51.628;6.664;2023-07-29T04:21:08;5.63;;;5.15;;
9906;SDS011;4992;51.628;6.664;2023-07-29T04:23:34;6.03;;;5.53;;
9906;SDS011;4992;51.628;6.664;2023-07-29T04:26:00;9.32;;;6.15;;
9906;SDS011;4992;51.628;6.664;2023-07-29T04:28:26;8.65;;;6.03;;
9906;SDS011;4992;51.628;6.664;2023-07-29T04:30:52;7.53;;;6.60;;
9906;SDS011;4992;51.628;6.664;2023-07-29T04:33:18;8.48;;;7.57;;
9906;SDS011;4992;51.628;6.664;2023-07-29T04:35:44;8.85;;;8.13;;
9906;SDS011;4992;51.628;6.664;2023-07-29T04:38:10;9.40;;;8.45;;
9906;SDS011;4992;51.628;6.664;2023-07-29T04:40:36;9.65;;;8.65;;
9906;SDS011;4992;51.628;6.664;2023-07-29T04:43:02;12.15;;;8.45;;
9906;SDS011;4992;51.628;6.664;2023-07-29T04:45:29;10.45;;;8.93;;
9906;SDS011;4992;51.628;6.664;2023-07-29T04:47:55;13.07;;;9.02;;
9906;SDS011;4992;51.628;6.664;2023-07-29T04:50:21;10.13;;;9.20;;
9906;SDS011;4992;51.628;6.664;2023-07-29T04:52:47;9.65;;;8.75;;
9906;SDS011;4992;51.628;6.664;2023-07-29T04:55:12;10.32;;;9.25;;
9906;SDS011;4992;51.628;6.664;2023-07-29T04:57:39;9.68;;;8.45;;
9906;SDS011;4992;51.628;6.664;2023-07-29T05:00:05;9.75;;;8.77;;
9906;SDS011;4992;51.628;6.664;2023-07-29T05:02:31;11.15;;;9.20;;
9906;SDS011;4992;51.628;6.664;2023-07-29T05:04:57;10.45;;;9.45;;
9906;SDS011;4992;51.628;6.664;2023-07-29T05:07:22;14.15;;;10.80;;
9906;SDS011;4992;51.628;6.664;2023-07-29T05:09:49;10.77;;;9.70;;
9906;SDS011;4992;51.628;6.664;2023-07-29T05:12:15;10.00;;;9.10;;
9906;SDS011;4992;51.628;6.664;2023-07-29T05:14:41;10.65;;;9.50;;
9906;SDS011;4992;51.628;6.664;2023-07-29T05:17:07;9.38;;;8.57;;
9906;SDS011;4992;51.628;6.664;2023-07-29T05:19:33;10.65;;;8.30;;
9906;SDS011;4992;51.628;6.664;2023-07-29T05:21:58;8.88;;;7.90;;
9906;SDS011;4992;51.628;6.664;2023-07-29T05:24:24;10.68;;;8.38;;
9906;SDS011;4992;51.628;6.664;2023-07-29T05:26:50;7.38;;;6.70;;
9906;SDS011;4992;51.628;6.664;2023-07-29T05:29:16;8.55;;;6.45;;
9906;SDS011;4992;51.628;6.664;2023-07-29T05:31:42;6.35;;;5.75;;
9906;SDS011;4992;51.628;6.664;2023-07-29T05:34:08;5.47;;;5.05;;
9906;SDS011;4992;51.628;6.664;2023-07-29T05:36:34;8.20;;;4.40;;
9906;SDS011;4992;51.628;6.664;2023-07-29T05:39:00;4.95;;;4.45;;
9906;SDS011;4992;51.628;6.664;2023-07-29T05:41:26;5.53;;;3.70;;
9906;SDS011;4992;51.628;6.664;2023-07-29T05:43:53;3.90;;;3.50;;
9906;SDS011;4992;51.628;6.664;2023-07-29T05:46:19;3.47;;;3.17;;
9906;SDS011;4992;51.628;6.664;2023-07-29T05:48:45;3.78;;;3.47;;
9906;SDS011;4992;51.628;6.664;2023-07-29T05:51:11;3.40;;;3.10;;
9906;SDS011;4992;51.628;6.664;2023-07-29T05:53:37;3.28;;;2.65;;
9906;SDS011;4992;51.628;6.664;2023-07-29T05:56:03;5.18;;;2.75;;
9906;SDS011;4992;51.628;6.664;2023-07-29T05:58:29;3.40;;;2.40;;
9906;SDS011;4992;51.628;6.664;2023-07-29T06:00:56;3.40;;;3.10;;
9906;SDS011;4992;51.628;6.664;2023-07-29T06:03:22;4.00;;;3.42;;
9906;SDS011;4992;51.628;6.664;2023-07-29T06:05:48;3.30;;;3.00;;
9906;SDS011;4992;51.628;6.664;2023-07-29T06:08:14;3.55;;;2.92;;
9906;SDS011;4992;51.628;6.664;2023-07-29T06:10:40;2.90;;;2.63;;
9906;SDS011;4992;51.628;6.664;2023-07-29T06:13:06;3.60;;;3.08;;
9906;SDS011;4992;51.628;6.664;2023-07-29T06:15:33;4.07;;;2.90;;
9906;SDS011;4992;51.628;6.664;2023-07-29T06:17:59;4.90;;;3.22;;
9906;SDS011;4992;51.628;6.664;2023-07-29T06:20:24;4.47;;;2.80;;
9906;SDS011;4992;51.628;6.664;2023-07-29T06:22:50;3.10;;;2.80;;
9906;SDS011;4992;51.628;6.664;2023-07-29T06:25:16;3.28;;;2.97;;
9906;SDS011;4992;51.628;6.664;2023-07-29T06:27:42;3.83;;;3.00;;
9906;SDS011;4992;51.628;6.664;2023-07-29T06:30:08;4.95;;;2.70;;
9906;SDS011;4992;51.628;6.664;2023-07-29T06:32:34;6.13;;;3.15;;
9906;SDS011;4992;51.628;6.664;2023-07-29T06:35:00;2.83;;;2.30;;
9906;SDS011;4992;51.628;6.664;2023-07-29T06:37:26;2.97;;;2.50;;
9906;SDS011;4992;51.628;6.664;2023-07-29T06:39:52;2.78;;;2.20;;
9906;SDS011;4992;51.628;6.664;2023-07-29T06:42:18;3.50;;;2.35;;
9906;SDS011;4992;51.628;6.664;2023-07-29T06:44:44;2.95;;;2.20;;
9906;SDS011;4992;51.628;6.664;2023-07-29T06:47:11;2.05;;;1.85;;
9906;SDS011;4992;51.628;6.664;2023-07-29T06:49:37;2.95;;;2.05;;
9906;SDS011;4992;51.628;6.664;2023-07-29T06:52:03;2.25;;;2.08;;
9906;SDS011;4992;51.628;6.664;2023-07-29T06:54:29;2.65;;;1.73;;
9906;SDS011;4992;51.628;6.664;2023-07-29T06:56:55;3.20;;;1.95;;
9906;SDS011;4992;51.628;6.664;2023-07-29T06:59:21;2.33;;;1.48;;
9906;SDS011;4992;51.628;6.664;2023-07-29T07:01:47;3.25;;;2.17;;
9906;SDS011;4992;51.628;6.664;2023-07-29T07:04:13;3.60;;;1.80;;
9906;SDS011;4992;51.628;6.664;2023-07-29T07:06:39;1.45;;;1.30;;
9906;SDS011;4992;51.628;6.664;2023-07-29T07:09:05;2.88;;;1.73;;
9906;SDS011;4992;51.628;6.664;2023-07-29T07:11:30;1.52;;;1.40;;
9906;SDS011;4992;51.628;6.664;2023-07-29T07:13:56;1.70;;;1.60;;
9906;SDS011;4992;51.628;6.664;2023-07-29T07:16:22;2.50;;;1.83;;
9906;SDS011;4992;51.628;6.664;2023-07-29T07:18:48;1.63;;;1.52;;
9906;SDS011;4992;51.628;6.664;2023-07-29T07:21:14;3.38;;;1.80;;
9906;SDS011;4992;51.628;6.664;2023-07-29T07:23:40;1.80;;;1.70;;
9906;SDS011;4992;51.628;6.664;2023-07-29T07:26:06;1.67;;;1.58;;
9906;SDS011;4992;51.628;6.664;2023-07-29T07:28:32;2.15;;;1.88;;
9906;SDS011;4992;51.628;6.664;2023-07-29T07:30:58;1.45;;;1.30;;
9906;SDS011;4992;51.628;6.664;2023-07-29T07:33:24;1.30;;;1.23;;
9906;SDS011;4992;51.628;6.664;2023-07-29T07:35:50;1.88;;;1.58;;
9906;SDS011;4992;51.628;6.664;2023-07-29T07:38:16;1.83;;;1.38;;
9906;SDS011;4992;51.628;6.664;2023-07-29T07:40:42;1.55;;;1.30;;
9906;SDS011;4992;51.628;6.664;2023-07-29T07:43:08;1.73;;;1.10;;
9906;SDS011;4992;51.628;6.664;2023-07-29T07:45:34;1.38;;;1.27;;
9906;SDS011;4992;51.628;6.664;2023-07-29T07:48:00;1.23;;;1.20;;
9906;SDS011;4992;51.628;6.664;2023-07-29T07:50:29;1.27;;;1.20;;
9906;SDS011;4992;51.628;6.664;2023-07-29T07:52:54;2.03;;;1.00;;
9906;SDS011;4992;51.628;6.664;2023-07-29T07:55:20;2.58;;;1.33;;
9906;SDS011;4992;51.628;6.664;2023-07-29T07:57:46;1.20;;;1.08;;
9906;SDS011;4992;51.628;6.664;2023-07-29T08:00:12;0.90;;;0.90;;
9906;SDS011;4992;51.628;6.664;2023-07-29T08:02:40;1.02;;;0.93;;
9906;SDS011;4992;51.628;6.664;2023-07-29T08:05:06;1.35;;;0.90;;
9906;SDS011;4992;51.628;6.664;2023-07-29T08:07:32;0.90;;;0.80;;
9906;SDS011;4992;51.628;6.664;2023-07-29T08:09:58;0.90;;;0.90;;
9906;SDS011;4992;51.628;6.664;2023-07-29T08:12:24;1.25;;;0.93;;
9906;SDS011;4992;51.628;6.664;2023-07-29T08:14:50;1.42;;;0.90;;
9906;SDS011;4992;51.628;6.664;2023-07-29T08:17:16;0.77;;;0.77;;
9906;SDS011;4992;51.628;6.664;2023-07-29T08:19:42;2.47;;;1.20;;
9906;SDS011;4992;51.628;6.664;2023-07-29T08:22:08;0.77;;;0.77;;
9906;SDS011;4992;51.628;6.664;2023-07-29T08:24:34;2.35;;;0.85;;
9906;SDS011;4992;51.628;6.664;2023-07-29T08:27:00;1.27;;;1.02;;
9906;SDS011;4992;51.628;6.664;2023-07-29T08:29:26;1.15;;;0.70;;
9906;SDS011;4992;51.628;6.664;2023-07-29T08:31:52;1.85;;;0.90;;
9906;SDS011;4992;51.628;6.664;2023-07-29T08:34:18;0.80;;;0.80;;
9906;SDS011;4992;51.628;6.664;2023-07-29T08:36:43;1.45;;;0.95;;
9906;SDS011;4992;51.628;6.664;2023-07-29T08:39:09;0.98;;;0.90;;
9906;SDS011;4992;51.628;6.664;2023-07-29T08:41:37;1.13;;;1.02;;
9906;SDS011;4992;51.628;6.664;2023-07-29T08:44:11;1.50;;;0.60;;
9906;SDS011;4992;51.628;6.664;2023-07-29T08:46:38;1.13;;;0.80;;
9906;SDS011;4992;51.628;6.664;2023-07-29T08:49:04;1.25;;;0.77;;
9906;SDS011;4992;51.628;6.664;2023-07-29T08:51:31;0.90;;;0.80;;
9906;SDS011;4992;51.628;6.664;2023-07-29T08:53:58;0.60;;;0.55;;
9906;SDS011;4992;51.628;6.664;2023-07-29T08:56:24;2.00;;;0.70;;
9906;SDS011;4992;51.628;6.664;2023-07-29T08:58:50;3.63;;;0.70;;
9906;SDS011;4992;51.628;6.664;2023-07-29T09:01:17;1.25;;;0.80;;
9906;SDS011;4992;51.628;6.664;2023-07-29T09:03:43;0.68;;;0.63;;
9906;SDS011;4992;51.628;6.664;2023-07-29T09:06:09;0.57;;;0.57;;
9906;SDS011;4992;51.628;6.664;2023-07-29T09:08:35;2.65;;;0.80;;
9906;SDS011;4992;51.628;6.664;2023-07-29T09:11:01;0.82;;;0.82;;
9906;SDS011;4992;51.628;6.664;2023-07-29T09:13:27;0.75;;;0.75;;
9906;SDS011;4992;51.628;6.664;2023-07-29T09:15:54;3.97;;;0.77;;
9906;SDS011;4992;51.628;6.664;2023-07-29T09:18:23;0.70;;;0.70;;
9906;SDS011;4992;51.628;6.664;2023-07-29T09:20:51;1.60;;;0.90;;
9906;SDS011;4992;51.628;6.664;2023-07-29T09:23:17;1.48;;;0.90;;
9906;SDS011;4992;51.628;6.664;2023-07-29T09:25:43;2.65;;;1.13;;
9906;SDS011;4992;51.628;6.664;2023-07-29T09:28:14;0.65;;;0.63;;
9906;SDS011;4992;51.628;6.664;2023-07-29T09:30:41;2.15;;;1.20;;
9906;SDS011;4992;51.628;6.664;2023-07-29T09:33:08;0.85;;;0.80;;
9906;SDS011;4992;51.628;6.664;2023-07-29T09:35:35;0.98;;;0.85;;
9906;SDS011;4992;51.628;6.664;2023-07-29T09:38:04;0.80;;;0.80;;
9906;SDS011;4992;51.628;6.664;2023-07-29T09:40:34;2.30;;;0.80;;
9906;SDS011;4992;51.628;6.664;2023-07-29T09:43:01;1.75;;;0.88;;
9906;SDS011;4992;51.628;6.664;2023-07-29T09:45:27;2.15;;;0.85;;
9906;SDS011;4992;51.628;6.664;2023-07-29T09:47:54;4.38;;;1.90;;
9906;SDS011;4992;51.628;6.664;2023-07-29T09:50:23;3.30;;;1.42;;
9906;SDS011;4992;51.628;6.664;2023-07-29T09:52:50;1.77;;;0.60;;
9906;SDS011;4992;51.628;6.664;2023-07-29T09:55:19;2.05;;;0.85;;
9906;SDS011;4992;51.628;6.664;2023-07-29T09:57:45;2.22;;;1.35;;
9906;SDS011;4992;51.628;6.664;2023-07-29T10:00:12;1.20;;;0.77;;
9906;SDS011;4992;51.628;6.664;2023-07-29T10:02:42;1.05;;;0.93;;
9906;SDS011;4992;51.628;6.664;2023-07-29T10:05:08;1.38;;;0.82;;
9906;SDS011;4992;51.628;6.664;2023-07-29T10:07:36;1.75;;;0.70;;
9906;SDS011;4992;51.628;6.664;2023-07-29T10:10:03;2.00;;;1.10;;
9906;SDS011;4992;51.628;6.664;2023-07-29T10:12:30;2.72;;;0.80;;
9906;SDS011;4992;51.628;6.664;2023-07-29T10:14:58;3.38;;;1.27;;
9906;SDS011;4992;51.628;6.664;2023-07-29T10:17:25;0.70;;;0.70;;
9906;SDS011;4992;51.628;6.664;2023-07-29T10:19:52;0.60;;;0.60;;
9906;SDS011;4992;51.628;6.664;2023-07-29T10:22:19;2.75;;;1.30;;
9906;SDS011;4992;51.628;6.664;2023-07-29T10:24:45;1.13;;;0.60;;
9906;SDS011;4992;51.628;6.664;2023-07-29T10:27:12;1.38;;;0.77;;
9906;SDS011;4992;51.628;6.664;2023-07-29T10:29:39;1.25;;;0.50;;
9906;SDS011;4992;51.628;6.664;2023-07-29T10:32:09;1.15;;;0.65;;
9906;SDS011;4992;51.628;6.664;2023-07-29T10:34:36;1.63;;;0.68;;
9906;SDS011;4992;51.628;6.664;2023-07-29T10:37:03;1.50;;;0.52;;
9906;SDS011;4992;51.628;6.664;2023-07-29T10:39:38;0.70;;;0.60;;
9906;SDS011;4992;51.628;6.664;2023-07-29T10:42:05;0.95;;;0.75;;
9906;SDS011;4992;51.628;6.664;2023-07-29T10:47:11;1.33;;;0.47;;
9906;SDS011;4992;51.628;6.664;2023-07-29T10:49:39;3.67;;;2.08;;
9906;SDS011;4992;51.628;6.664;2023-07-29T10:52:06;3.95;;;1.10;;
9906;SDS011;4992;51.628;6.664;2023-07-29T10:54:40;2.75;;;1.42;;
9906;SDS011;4992;51.628;6.664;2023-07-29T10:57:07;5.40;;;1.73;;
9906;SDS011;4992;51.628;6.664;2023-07-29T10:59:33;3.35;;;1.02;;
9906;SDS011;4992;51.628;6.664;2023-07-29T11:01:59;1.98;;;0.60;;
9906;SDS011;4992;51.628;6.664;2023-07-29T11:04:26;1.85;;;0.55;;
9906;SDS011;4992;51.628;6.664;2023-07-29T11:09:41;3.38;;;0.60;;
9906;SDS011;4992;51.628;6.664;2023-07-29T11:14:52;0.50;;;0.40;;
9906;SDS011;4992;51.628;6.664;2023-07-29T11:17:18;0.93;;;0.45;;
9906;SDS011;4992;51.628;6.664;2023-07-29T11:19:44;0.20;;;0.20;;
9906;SDS011;4992;51.628;6.664;2023-07-29T11:22:11;0.88;;;0.40;;
9906;SDS011;4992;51.628;6.664;2023-07-29T11:24:37;1.60;;;0.60;;
9906;SDS011;4992;51.628;6.664;2023-07-29T11:27:03;2.60;;;0.70;;
9906;SDS011;4992;51.628;6.664;2023-07-29T11:29:29;2.35;;;0.50;;
9906;SDS011;4992;51.628;6.664;2023-07-29T11:31:55;2.47;;;0.60;;
9906;SDS011;4992;51.628;6.664;2023-07-29T11:34:31;0.50;;;0.50;;
9906;SDS011;4992;51.628;6.664;2023-07-29T11:36:57;2.05;;;0.70;;
9906;SDS011;4992;51.628;6.664;2023-07-29T11:39:23;0.52;;;0.52;;
9906;SDS011;4992;51.628;6.664;2023-07-29T11:41:49;0.65;;;0.65;;
9906;SDS011;4992;51.628;6.664;2023-07-29T11:44:17;0.50;;;0.50;;
9906;SDS011;4992;51.628;6.664;2023-07-29T11:46:44;0.50;;;0.50;;
9906;SDS011;4992;51.628;6.664;2023-07-29T11:49:10;1.15;;;0.90;;
9906;SDS011;4992;51.628;6.664;2023-07-29T11:51:36;1.65;;;1.38;;
9906;SDS011;4992;51.628;6.664;2023-07-29T11:54:02;0.50;;;0.50;;
9906;SDS011;4992;51.628;6.664;2023-07-29T11:56:29;4.68;;;1.00;;
9906;SDS011;4992;51.628;6.664;2023-07-29T11:58:58;1.05;;;0.73;;
9906;SDS011;4992;51.628;6.664;2023-07-29T12:01:24;0.73;;;0.73;;
9906;SDS011;4992;51.628;6.664;2023-07-29T12:03:50;0.50;;;0.50;;
9906;SDS011;4992;51.628;6.664;2023-07-29T12:06:16;2.88;;;0.90;;
9906;SDS011;4992;51.628;6.664;2023-07-29T12:08:42;0.70;;;0.70;;
9906;SDS011;4992;51.628;6.664;2023-07-29T12:11:08;1.00;;;0.60;;
9906;SDS011;4992;51.628;6.664;2023-07-29T12:13:38;1.30;;;0.70;;
9906;SDS011;4992;51.628;6.664;2023-07-29T12:16:04;0.98;;;0.68;;
9906;SDS011;4992;51.628;6.664;2023-07-29T12:18:33;1.67;;;1.17;;
9906;SDS011;4992;51.628;6.664;2023-07-29T12:20:59;1.67;;;0.70;;
9906;SDS011;4992;51.628;6.664;2023-07-29T12:23:25;0.95;;;0.50;;
9906;SDS011;4992;51.628;6.664;2023-07-29T12:25:56;0.60;;;0.52;;
9906;SDS011;4992;51.628;6.664;2023-07-29T12:28:22;0.93;;;0.82;;
9906;SDS011;4992;51.628;6.664;2023-07-29T12:30:52;1.85;;;0.98;;
9906;SDS011;4992;51.628;6.664;2023-07-29T12:35:56;0.60;;;0.60;;
9906;SDS011;4992;51.628;6.664;2023-07-29T12:38:22;1.38;;;0.80;;
9906;SDS011;4992;51.628;6.664;2023-07-29T12:40:48;1.20;;;0.95;;
9906;SDS011;4992;51.628;6.664;2023-07-29T12:43:14;1.15;;;0.80;;
9906;SDS011;4992;51.628;6.664;2023-07-29T12:45:40;1.80;;;1.00;;
9906;SDS011;4992;51.628;6.664;2023-07-29T12:48:07;1.45;;;1.00;;
9906;SDS011;4992;51.628;6.664;2023-07-29T12:50:33;6.35;;;1.10;;
9906;SDS011;4992;51.628;6.664;2023-07-29T12:52:59;1.48;;;0.90;;
9906;SDS011;4992;51.628;6.664;2023-07-29T12:55:25;1.15;;;0.75;;
9906;SDS011;4992;51.628;6.664;2023-07-29T12:57:51;1.73;;;0.63;;
9906;SDS011;4992;51.628;6.664;2023-07-29T13:00:17;1.77;;;0.70;;
9906;SDS011;4992;51.628;6.664;2023-07-29T13:02:43;1.63;;;1.27;;
9906;SDS011;4992;51.628;6.664;2023-07-29T13:05:09;1.60;;;1.20;;
9906;SDS011;4992;51.628;6.664;2023-07-29T13:07:36;1.90;;;1.25;;
9906;SDS011;4992;51.628;6.664;2023-07-29T13:10:03;4.10;;;2.13;;
9906;SDS011;4992;51.628;6.664;2023-07-29T13:12:29;3.67;;;1.70;;
9906;SDS011;4992;51.628;6.664;2023-07-29T13:14:55;4.57;;;2.10;;
9906;SDS011;4992;51.628;6.664;2023-07-29T13:17:21;6.15;;;1.88;;
9906;SDS011;4992;51.628;6.664;2023-07-29T13:19:48;2.63;;;1.77;;
9906;SDS011;4992;51.628;6.664;2023-07-29T13:22:14;2.85;;;2.05;;
9906;SDS011;4992;51.628;6.664;2023-07-29T13:24:40;5.55;;;2.92;;
9906;SDS011;4992;51.628;6.664;2023-07-29T13:27:06;15.93;;;3.63;;
9906;SDS011;4992;51.628;6.664;2023-07-29T13:29:32;16.80;;;3.03;;
9906;SDS011;4992;51.628;6.664;2023-07-29T13:31:58;10.48;;;3.03;;
9906;SDS011;4992;51.628;6.664;2023-07-29T13:34:24;5.38;;;2.80;;
9906;SDS011;4992;51.628;6.664;2023-07-29T13:36:50;3.15;;;1.35;;
9906;SDS011;4992;51.628;6.664;2023-07-29T13:39:16;9.77;;;1.45;;
9906;SDS011;4992;51.628;6.664;2023-07-29T13:41:42;26.13;;;1.98;;
9906;SDS011;4992;51.628;6.664;2023-07-29T13:44:08;15.10;;;1.77;;
9906;SDS011;4992;51.628;6.664;2023-07-29T13:46:34;2.58;;;1.10;;
9906;SDS011;4992;51.628;6.664;2023-07-29T13:48:59;1.67;;;1.10;;
9906;SDS011;4992;51.628;6.664;2023-07-29T13:51:26;4.70;;;1.00;;
9906;SDS011;4992;51.628;6.664;2023-07-29T13:53:52;2.35;;;1.00;;
9906;SDS011;4992;51.628;6.664;2023-07-29T13:56:18;1.58;;;0.90;;
9906;SDS011;4992;51.628;6.664;2023-07-29T13:58:44;2.92;;;1.00;;
9906;SDS011;4992;51.628;6.664;2023-07-29T14:01:10;4.25;;;0.70;;
9906;SDS011;4992;51.628;6.664;2023-07-29T14:03:36;0.85;;;0.65;;
9906;SDS011;4992;51.628;6.664;2023-07-29T14:06:02;4.15;;;1.10;;
9906;SDS011;4992;51.628;6.664;2023-07-29T14:08:28;3.42;;;1.40;;
9906;SDS011;4992;51.628;6.664;2023-07-29T14:10:54;1.40;;;1.05;;
9906;SDS011;4992;51.628;6.664;2023-07-29T14:13:20;2.47;;;1.50;;
9906;SDS011;4992;51.628;6.664;2023-07-29T14:15:46;1.65;;;1.25;;
9906;SDS011;4992;51.628;6.664;2023-07-29T14:18:11;2.08;;;1.42;;
9906;SDS011;4992;51.628;6.664;2023-07-29T14:20:38;1.60;;;1.45;;
9906;SDS011;4992;51.628;6.664;2023-07-29T14:23:04;3.33;;;1.90;;
9906;SDS011;4992;51.628;6.664;2023-07-29T14:25:30;2.67;;;2.33;;
9906;SDS011;4992;51.628;6.664;2023-07-29T14:27:56;2.75;;;2.55;;
9906;SDS011;4992;51.628;6.664;2023-07-29T14:30:22;6.35;;;3.47;;
9906;SDS011;4992;51.628;6.664;2023-07-29T14:32:48;3.70;;;2.03;;
9906;SDS011;4992;51.628;6.664;2023-07-29T14:35:14;1.77;;;1.30;;
9906;SDS011;4992;51.628;6.664;2023-07-29T14:37:40;15.57;;;2.20;;
9906;SDS011;4992;51.628;6.664;2023-07-29T14:40:06;3.17;;;1.20;;
9906;SDS011;4992;51.628;6.664;2023-07-29T14:42:32;1.13;;;0.85;;
9906;SDS011;4992;51.628;6.664;2023-07-29T14:44:58;1.23;;;0.63;;
9906;SDS011;4992;51.628;6.664;2023-07-29T14:47:24;2.28;;;0.50;;
9906;SDS011;4992;51.628;6.664;2023-07-29T14:49:50;0.65;;;0.40;;
9906;SDS011;4992;51.628;6.664;2023-07-29T14:52:16;0.75;;;0.60;;
9906;SDS011;4992;51.628;6.664;2023-07-29T14:54:42;0.70;;;0.65;;
9906;SDS011;4992;51.628;6.664;2023-07-29T14:57:09;2.28;;;0.80;;
9906;SDS011;4992;51.628;6.664;2023-07-29T14:59:35;0.95;;;0.82;;
9906;SDS011;4992;51.628;6.664;2023-07-29T15:02:01;4.43;;;0.65;;
9906;SDS011;4992;51.628;6.664;2023-07-29T15:04:27;1.02;;;0.90;;
9906;SDS011;4992;51.628;6.664;2023-07-29T15:06:53;1.88;;;1.45;;
9906;SDS011;4992;51.628;6.664;2023-07-29T15:09:19;2.50;;;1.23;;
9906;SDS011;4992;51.628;6.664;2023-07-29T15:11:45;0.95;;;0.95;;
9906;SDS011;4992;51.628;6.664;2023-07-29T15:14:11;1.50;;;1.40;;
9906;SDS011;4992;51.628;6.664;2023-07-29T15:16:37;1.20;;;1.10;;
9906;SDS011;4992;51.628;6.664;2023-07-29T15:19:04;1.42;;;1.13;;
9906;SDS011;4992;51.628;6.664;2023-07-29T15:21:30;1.80;;;0.90;;
9906;SDS011;4992;51.628;6.664;2023-07-29T15:23:58;1.70;;;1.10;;